createdAt,value
2018-03-11T00:00:16.442Z,964.88
2018-03-11T00:01:16.435Z,964.85
2018-03-11T00:02:16.394Z,964.83
2018-03-11T00:03:16.386Z,964.88
2018-03-11T00:04:16.386Z,964.82
2018-03-11T00:05:16.420Z,964.83
2018-03-11T00:06:16.383Z,964.80
2018-03-11T00:07:16.403Z,964.85
2018-03-11T00:08:16.379Z,964.81
2018-03-11T00:09:16.382Z,964.84
2018-03-11T00:10:16.419Z,964.81
2018-03-11T00:11:16.392Z,964.83
2018-03-11T00:12:16.381Z,964.83
2018-03-11T00:13:16.380Z,964.85
2018-03-11T00:14:16.383Z,964.87
2018-03-11T00:15:16.416Z,964.88
2018-03-11T00:16:16.376Z,964.92
2018-03-11T00:17:16.374Z,964.90
2018-03-11T00:18:16.376Z,964.91
2018-03-11T00:19:16.371Z,964.91
2018-03-11T00:20:16.420Z,964.98
2018-03-11T00:21:16.384Z,964.97
2018-03-11T00:22:16.372Z,965.01
2018-03-11T00:23:16.371Z,965.08
2018-03-11T00:24:16.370Z,965.10
2018-03-11T00:25:16.412Z,965.05
2018-03-11T00:26:16.368Z,965.06
2018-03-11T00:27:16.370Z,964.99
2018-03-11T00:28:16.367Z,965.00
2018-03-11T00:29:16.395Z,964.99
2018-03-11T00:30:16.410Z,964.95
2018-03-11T00:31:16.415Z,964.94
2018-03-11T00:32:16.462Z,964.93
2018-03-11T00:33:16.371Z,964.91
2018-03-11T00:34:16.364Z,964.92
2018-03-11T00:35:16.368Z,964.91
2018-03-11T00:36:16.402Z,964.90
2018-03-11T00:37:16.366Z,964.88
2018-03-11T00:38:16.362Z,964.89
2018-03-11T00:39:16.361Z,964.86
2018-03-11T00:40:16.366Z,964.85
2018-03-11T00:41:16.407Z,964.85
2018-03-11T00:42:16.362Z,964.82
2018-03-11T00:43:16.372Z,964.82
2018-03-11T00:44:16.358Z,964.81
2018-03-11T00:45:16.419Z,964.81
2018-03-11T00:46:16.369Z,964.78
2018-03-11T00:47:16.400Z,964.76
2018-03-11T00:48:16.369Z,964.75
2018-03-11T00:49:16.358Z,964.80
2018-03-11T00:50:16.356Z,964.76
2018-03-11T00:51:16.400Z,964.76
2018-03-11T00:52:16.375Z,964.73
2018-03-11T00:53:16.354Z,964.73
2018-03-11T00:54:16.355Z,964.67
2018-03-11T00:55:16.354Z,964.71
2018-03-11T00:56:16.394Z,964.70
2018-03-11T00:57:16.355Z,964.73
2018-03-11T00:58:16.354Z,964.69
2018-03-11T00:59:16.351Z,964.71
2018-03-11T01:00:16.946Z,964.73
2018-03-11T01:01:16.387Z,964.76
2018-03-11T01:02:16.409Z,964.72
2018-03-11T01:03:16.348Z,964.73
2018-03-11T01:04:16.350Z,964.70
2018-03-11T01:05:16.350Z,964.70
2018-03-11T01:06:16.386Z,964.68
2018-03-11T01:07:16.348Z,964.68
2018-03-11T01:08:16.347Z,964.69
2018-03-11T01:09:16.348Z,964.64
2018-03-11T01:10:16.349Z,964.63
2018-03-11T01:11:16.386Z,964.65
2018-03-11T01:12:17.089Z,964.63
2018-03-11T01:13:16.340Z,964.63
2018-03-11T01:14:16.342Z,964.63
2018-03-11T01:15:16.342Z,964.59
2018-03-11T01:16:16.396Z,964.57
2018-03-11T01:17:16.341Z,964.60
2018-03-11T01:18:16.341Z,964.63
2018-03-11T01:19:16.364Z,964.63
2018-03-11T01:20:16.346Z,964.63
2018-03-11T01:21:16.390Z,964.61
2018-03-11T01:22:16.338Z,964.64
2018-03-11T01:23:16.338Z,964.64
2018-03-11T01:24:16.338Z,964.59
2018-03-11T01:25:16.337Z,964.66
2018-03-11T01:26:16.387Z,964.65
2018-03-11T01:27:16.338Z,964.62
2018-03-11T01:28:16.810Z,964.65
2018-03-11T01:29:16.336Z,964.61
2018-03-11T01:30:16.334Z,964.61
2018-03-11T01:31:16.385Z,964.60
2018-03-11T01:32:16.335Z,964.60
2018-03-11T01:33:16.357Z,964.57
2018-03-11T01:34:16.336Z,964.56
2018-03-11T01:35:16.333Z,964.52
2018-03-11T01:36:16.377Z,964.51
2018-03-11T01:37:16.332Z,964.50
2018-03-11T01:38:17.319Z,964.52
2018-03-11T01:39:16.329Z,964.47
2018-03-11T01:40:16.354Z,964.47
2018-03-11T01:41:16.372Z,964.47
2018-03-11T01:42:16.330Z,964.45
2018-03-11T01:43:16.355Z,964.44
2018-03-11T01:44:16.330Z,964.46
2018-03-11T01:45:16.354Z,964.41
2018-03-11T01:46:16.367Z,964.42
2018-03-11T01:47:16.343Z,964.39
2018-03-11T01:48:16.327Z,964.39
2018-03-11T01:49:16.328Z,964.35
2018-03-11T01:50:16.326Z,964.39
2018-03-11T01:51:16.368Z,964.45
2018-03-11T01:52:16.327Z,964.40
2018-03-11T01:53:16.324Z,964.43
2018-03-11T01:54:16.329Z,964.40
2018-03-11T01:55:16.324Z,964.39
2018-03-11T01:56:16.367Z,964.38
2018-03-11T01:57:16.341Z,964.34
2018-03-11T01:58:16.329Z,964.33
2018-03-11T01:59:16.323Z,964.32
2018-03-11T02:00:16.323Z,964.32
2018-03-11T02:01:17.387Z,964.23
2018-03-11T02:02:16.321Z,964.22
2018-03-11T02:03:16.322Z,964.22
2018-03-11T02:04:16.351Z,964.20
2018-03-11T02:05:16.330Z,964.18
2018-03-11T02:06:16.360Z,964.14
2018-03-11T02:07:16.321Z,964.18
2018-03-11T02:08:16.319Z,964.11
2018-03-11T02:09:16.319Z,964.09
2018-03-11T02:10:16.319Z,964.04
2018-03-11T02:11:16.374Z,963.98
2018-03-11T02:12:16.319Z,964.04
2018-03-11T02:13:16.318Z,963.95
2018-03-11T02:14:16.316Z,963.95
2018-03-11T02:15:16.317Z,963.92
2018-03-11T02:16:16.358Z,963.94
2018-03-11T02:17:16.318Z,963.90
2018-03-11T02:18:16.314Z,963.83
2018-03-11T02:19:16.319Z,963.85
2018-03-11T02:20:16.323Z,963.82
2018-03-11T02:21:16.361Z,963.79
2018-03-11T02:22:16.351Z,963.80
2018-03-11T02:23:16.317Z,963.80
2018-03-11T02:24:16.314Z,963.71
2018-03-11T02:25:16.312Z,963.71
2018-03-11T02:26:16.313Z,963.71
2018-03-11T02:27:16.380Z,963.69
2018-03-11T02:28:16.312Z,963.72
2018-03-11T02:29:16.310Z,963.71
2018-03-11T02:30:16.723Z,963.69
2018-03-11T02:31:16.351Z,963.71
2018-03-11T02:32:16.311Z,963.73
2018-03-11T02:33:16.309Z,963.67
2018-03-11T02:34:16.309Z,963.70
2018-03-11T02:35:16.315Z,963.59
2018-03-11T02:36:16.345Z,963.63
2018-03-11T02:37:16.424Z,963.59
2018-03-11T02:38:16.304Z,963.56
2018-03-11T02:39:16.307Z,963.55
2018-03-11T02:40:16.304Z,963.57
2018-03-11T02:41:16.361Z,963.53
2018-03-11T02:42:16.303Z,963.56
2018-03-11T02:43:16.303Z,963.61
2018-03-11T02:44:16.305Z,963.59
2018-03-11T02:45:16.302Z,963.59
2018-03-11T02:46:16.344Z,963.65
2018-03-11T02:47:16.303Z,963.68
2018-03-11T02:48:16.301Z,963.65
2018-03-11T02:49:16.302Z,963.62
2018-03-11T02:50:16.299Z,963.64
2018-03-11T02:51:16.360Z,963.60
2018-03-11T02:52:16.302Z,963.60
2018-03-11T02:53:16.299Z,963.59
2018-03-11T02:54:16.305Z,963.59
2018-03-11T02:55:16.295Z,963.58
2018-03-11T02:56:16.339Z,963.57
2018-03-11T02:57:17.129Z,963.53
2018-03-11T02:58:16.295Z,963.56
2018-03-11T02:59:16.295Z,963.59
2018-03-11T03:00:16.291Z,963.58
2018-03-11T03:01:16.340Z,963.58
2018-03-11T03:02:16.543Z,963.53
2018-03-11T03:03:16.291Z,963.53
2018-03-11T03:04:16.286Z,963.57
2018-03-11T03:05:16.284Z,963.58
2018-03-11T03:06:16.288Z,963.55
2018-03-11T03:07:16.324Z,963.52
2018-03-11T03:08:16.292Z,963.56
2018-03-11T03:09:16.280Z,963.52
2018-03-11T03:10:16.277Z,963.51
2018-03-11T03:11:16.278Z,963.49
2018-03-11T03:12:16.315Z,963.52
2018-03-11T03:13:16.980Z,963.50
2018-03-11T03:14:16.273Z,963.49
2018-03-11T03:15:16.282Z,963.52
2018-03-11T03:16:16.278Z,963.55
2018-03-11T03:17:16.572Z,963.54
2018-03-11T03:18:16.272Z,963.54
2018-03-11T03:19:16.269Z,963.52
2018-03-11T03:20:16.270Z,963.48
2018-03-11T03:21:16.269Z,963.49
2018-03-11T03:22:16.321Z,963.49
2018-03-11T03:23:16.269Z,963.47
2018-03-11T03:24:16.266Z,963.48
2018-03-11T03:25:16.265Z,963.46
2018-03-11T03:26:16.270Z,963.40
2018-03-11T03:27:16.308Z,963.41
2018-03-11T03:28:16.264Z,963.41
2018-03-11T03:29:16.261Z,963.41
2018-03-11T03:30:16.263Z,963.42
2018-03-11T03:31:16.847Z,963.40
2018-03-11T03:32:16.325Z,963.41
2018-03-11T03:33:16.261Z,963.38
2018-03-11T03:34:16.266Z,963.33
2018-03-11T03:35:16.257Z,963.33
2018-03-11T03:36:16.258Z,963.30
2018-03-11T03:37:16.293Z,963.27
2018-03-11T03:38:16.298Z,963.28
2018-03-11T03:39:16.280Z,963.25
2018-03-11T03:40:16.259Z,963.29
2018-03-11T03:41:16.252Z,963.26
2018-03-11T03:42:16.251Z,963.20
2018-03-11T03:43:16.294Z,963.22
2018-03-11T03:44:16.251Z,963.20
2018-03-11T03:45:16.325Z,963.16
2018-03-11T03:46:16.272Z,963.14
2018-03-11T03:47:16.252Z,963.14
2018-03-11T03:48:16.293Z,963.10
2018-03-11T03:49:16.265Z,963.11
2018-03-11T03:50:16.249Z,963.11
2018-03-11T03:51:16.248Z,963.10
2018-03-11T03:52:16.248Z,963.10
2018-03-11T03:53:16.292Z,963.11
2018-03-11T03:54:16.243Z,963.08
2018-03-11T03:55:16.245Z,963.06
2018-03-11T03:56:16.248Z,963.05
2018-03-11T03:57:16.284Z,963.04
2018-03-11T03:58:16.243Z,963.06
2018-03-11T03:59:16.242Z,963.02
2018-03-11T04:00:16.242Z,963.00
2018-03-11T04:01:16.241Z,963.04
2018-03-11T04:02:16.281Z,963.03
2018-03-11T04:03:16.251Z,963.03
2018-03-11T04:04:16.239Z,962.96
2018-03-11T04:05:16.235Z,962.97
2018-03-11T04:06:16.238Z,962.99
2018-03-11T04:07:16.261Z,962.96
2018-03-11T04:08:16.271Z,962.96
2018-03-11T04:09:16.222Z,962.98
2018-03-11T04:10:16.239Z,962.94
2018-03-11T04:11:16.219Z,962.92
2018-03-11T04:12:16.276Z,962.96
2018-03-11T04:13:16.217Z,962.93
2018-03-11T04:14:16.216Z,962.94
2018-03-11T04:15:16.226Z,962.89
2018-03-11T04:16:16.247Z,962.93
2018-03-11T04:17:16.235Z,962.96
2018-03-11T04:18:16.254Z,962.92
2018-03-11T04:19:16.223Z,962.94
2018-03-11T04:20:16.234Z,962.94
2018-03-11T04:21:16.220Z,962.94
2018-03-11T04:22:16.246Z,962.96
2018-03-11T04:23:16.818Z,962.99
2018-03-11T04:24:16.219Z,963.01
2018-03-11T04:25:16.218Z,962.98
2018-03-11T04:26:16.218Z,962.93
2018-03-11T04:27:16.265Z,962.94
2018-03-11T04:28:16.215Z,962.95
2018-03-11T04:29:16.212Z,962.91
2018-03-11T04:30:16.201Z,962.86
2018-03-11T04:31:16.201Z,962.86
2018-03-11T04:32:16.249Z,962.83
2018-03-11T04:33:16.207Z,962.82
2018-03-11T04:34:16.633Z,962.83
2018-03-11T04:35:16.208Z,962.86
2018-03-11T04:36:16.197Z,962.83
2018-03-11T04:37:16.246Z,962.80
2018-03-11T04:38:16.217Z,962.73
2018-03-11T04:39:16.195Z,962.71
2018-03-11T04:40:16.202Z,962.73
2018-03-11T04:41:16.205Z,962.72
2018-03-11T04:42:16.237Z,962.71
2018-03-11T04:43:16.199Z,962.75
2018-03-11T04:44:16.214Z,962.72
2018-03-11T04:45:16.191Z,962.75
2018-03-11T04:46:16.184Z,962.73
2018-03-11T04:47:16.232Z,962.72
2018-03-11T04:48:16.186Z,962.68
2018-03-11T04:49:16.190Z,962.67
2018-03-11T04:50:16.190Z,962.63
2018-03-11T04:51:16.215Z,962.69
2018-03-11T04:52:16.226Z,962.67
2018-03-11T04:53:16.186Z,962.64
2018-03-11T04:54:16.175Z,962.65
2018-03-11T04:55:16.177Z,962.64
2018-03-11T04:56:16.176Z,962.67
2018-03-11T04:57:16.892Z,962.60
2018-03-11T04:58:16.246Z,962.65
2018-03-11T04:59:16.180Z,962.62
2018-03-11T05:00:16.181Z,962.61
2018-03-11T05:01:16.180Z,962.62
2018-03-11T05:02:16.210Z,962.53
2018-03-11T05:03:16.402Z,962.58
2018-03-11T05:04:16.166Z,962.54
2018-03-11T05:05:16.173Z,962.63
2018-03-11T05:06:16.160Z,962.60
2018-03-11T05:07:16.210Z,962.53
2018-03-11T05:08:16.189Z,962.54
2018-03-11T05:09:16.170Z,962.60
2018-03-11T05:10:16.167Z,962.63
2018-03-11T05:11:16.155Z,962.64
2018-03-11T05:12:16.221Z,962.56
2018-03-11T05:13:16.152Z,962.60
2018-03-11T05:14:16.150Z,962.59
2018-03-11T05:15:16.172Z,962.59
2018-03-11T05:16:16.159Z,962.63
2018-03-11T05:17:16.192Z,962.57
2018-03-11T05:18:16.184Z,962.57
2018-03-11T05:19:16.146Z,962.54
2018-03-11T05:20:16.153Z,962.53
2018-03-11T05:21:16.142Z,962.56
2018-03-11T05:22:16.174Z,962.53
2018-03-11T05:23:16.179Z,962.50
2018-03-11T05:24:16.196Z,962.58
2018-03-11T05:25:16.146Z,962.57
2018-03-11T05:26:16.138Z,962.56
2018-03-11T05:27:16.145Z,962.58
2018-03-11T05:28:16.173Z,962.57
2018-03-11T05:29:16.996Z,962.57
2018-03-11T05:30:16.133Z,962.52
2018-03-11T05:31:16.132Z,962.55
2018-03-11T05:32:16.161Z,962.57
2018-03-11T05:33:16.175Z,962.56
2018-03-11T05:34:16.135Z,962.55
2018-03-11T05:35:16.130Z,962.54
2018-03-11T05:36:16.124Z,962.55
2018-03-11T05:37:16.123Z,962.54
2018-03-11T05:38:16.169Z,962.55
2018-03-11T05:39:16.139Z,962.58
2018-03-11T05:40:16.121Z,962.60
2018-03-11T05:41:16.132Z,962.61
2018-03-11T05:42:16.166Z,962.61
2018-03-11T05:43:16.155Z,962.61
2018-03-11T05:44:16.125Z,962.65
2018-03-11T05:45:16.117Z,962.64
2018-03-11T05:46:16.138Z,962.64
2018-03-11T05:47:16.113Z,962.62
2018-03-11T05:48:16.147Z,962.64
2018-03-11T05:49:16.117Z,962.62
2018-03-11T05:50:16.110Z,962.57
2018-03-11T05:51:16.107Z,962.54
2018-03-11T05:52:16.848Z,962.50
2018-03-11T05:53:16.142Z,962.47
2018-03-11T05:54:16.106Z,962.50
2018-03-11T05:55:16.108Z,962.41
2018-03-11T05:56:16.116Z,962.43
2018-03-11T05:57:16.137Z,962.46
2018-03-11T05:58:16.106Z,962.44
2018-03-11T05:59:16.111Z,962.43
2018-03-11T06:00:16.106Z,962.43
2018-03-11T06:01:16.638Z,962.40
2018-03-11T06:02:16.133Z,962.46
2018-03-11T06:03:16.116Z,962.43
2018-03-11T06:04:16.098Z,962.39
2018-03-11T06:05:16.101Z,962.48
2018-03-11T06:06:16.099Z,962.42
2018-03-11T06:07:16.135Z,962.39
2018-03-11T06:08:16.098Z,962.36
2018-03-11T06:09:16.097Z,962.33
2018-03-11T06:10:16.095Z,962.38
2018-03-11T06:11:16.090Z,962.39
2018-03-11T06:12:16.121Z,962.45
2018-03-11T06:13:16.083Z,962.45
2018-03-11T06:14:16.080Z,962.48
2018-03-11T06:15:16.083Z,962.50
2018-03-11T06:16:16.079Z,962.61
2018-03-11T06:17:16.126Z,962.60
2018-03-11T06:18:16.087Z,962.63
2018-03-11T06:19:16.113Z,962.59
2018-03-11T06:20:16.088Z,962.61
2018-03-11T06:21:16.083Z,962.59
2018-03-11T06:22:16.086Z,962.60
2018-03-11T06:23:16.119Z,962.59
2018-03-11T06:24:16.079Z,962.59
2018-03-11T06:25:16.080Z,962.60
2018-03-11T06:26:16.080Z,962.66
2018-03-11T06:27:16.209Z,962.70
2018-03-11T06:28:16.112Z,962.68
2018-03-11T06:29:16.072Z,962.72
2018-03-11T06:30:16.119Z,962.64
2018-03-11T06:31:16.077Z,962.67
2018-03-11T06:32:16.076Z,962.64
2018-03-11T06:33:16.109Z,962.63
2018-03-11T06:34:16.137Z,962.62
2018-03-11T06:35:16.205Z,962.57
2018-03-11T06:36:16.081Z,962.60
2018-03-11T06:37:16.074Z,962.63
2018-03-11T06:38:16.113Z,962.70
2018-03-11T06:39:16.075Z,962.71
2018-03-11T06:40:16.084Z,962.73
2018-03-11T06:41:16.082Z,962.69
2018-03-11T06:42:16.080Z,962.73
2018-03-11T06:43:16.112Z,962.78
2018-03-11T06:44:16.074Z,962.72
2018-03-11T06:45:16.074Z,962.75
2018-03-11T06:46:16.075Z,962.81
2018-03-11T06:47:16.072Z,962.85
2018-03-11T06:48:16.149Z,962.88
2018-03-11T06:49:16.066Z,962.93
2018-03-11T06:50:16.077Z,962.94
2018-03-11T06:51:16.087Z,962.93
2018-03-11T06:52:16.086Z,962.90
2018-03-11T06:53:16.112Z,962.89
2018-03-11T06:54:16.085Z,962.91
2018-03-11T06:55:16.070Z,962.92
2018-03-11T06:56:16.089Z,962.95
2018-03-11T06:57:16.081Z,962.95
2018-03-11T06:58:16.207Z,962.99
2018-03-11T06:59:16.113Z,963.04
2018-03-11T07:00:16.091Z,963.05
2018-03-11T07:01:16.089Z,963.07
2018-03-11T07:02:16.090Z,963.11
2018-03-11T07:03:16.093Z,963.12
2018-03-11T07:04:16.172Z,963.15
2018-03-11T07:05:16.091Z,963.10
2018-03-11T07:06:16.123Z,963.14
2018-03-11T07:07:16.102Z,963.11
2018-03-11T07:08:16.197Z,963.07
2018-03-11T07:09:16.166Z,963.00
2018-03-11T07:10:16.098Z,963.03
2018-03-11T07:11:16.102Z,963.02
2018-03-11T07:12:17.130Z,962.94
2018-03-11T07:13:16.198Z,962.96
2018-03-11T07:14:16.288Z,962.95
2018-03-11T07:15:16.120Z,962.93
2018-03-11T07:16:16.144Z,962.95
2018-03-11T07:17:16.126Z,962.96
2018-03-11T07:18:16.122Z,962.89
2018-03-11T07:19:16.176Z,962.90
2018-03-11T07:20:16.128Z,962.91
2018-03-11T07:21:16.132Z,962.92
2018-03-11T07:22:16.134Z,962.92
2018-03-11T07:23:16.139Z,962.91
2018-03-11T07:24:16.189Z,962.98
2018-03-11T07:25:16.146Z,962.96
2018-03-11T07:26:16.150Z,962.94
2018-03-11T07:27:16.168Z,962.93
2018-03-11T07:28:16.169Z,962.96
2018-03-11T07:29:16.204Z,962.94
2018-03-11T07:30:16.259Z,962.86
2018-03-11T07:31:16.179Z,962.83
2018-03-11T07:32:16.186Z,962.81
2018-03-11T07:33:16.210Z,962.72
2018-03-11T07:34:16.193Z,962.71
2018-03-11T07:35:16.239Z,962.68
2018-03-11T07:36:16.195Z,962.64
2018-03-11T07:37:16.220Z,962.62
2018-03-11T07:38:16.211Z,962.61
2018-03-11T07:39:16.221Z,962.65
2018-03-11T07:40:16.270Z,962.64
2018-03-11T07:41:16.223Z,962.62
2018-03-11T07:42:16.224Z,962.62
2018-03-11T07:43:16.231Z,962.62
2018-03-11T07:44:16.264Z,962.61
2018-03-11T07:45:16.291Z,962.57
2018-03-11T07:46:16.250Z,962.55
2018-03-11T07:47:16.254Z,962.60
2018-03-11T07:48:16.269Z,962.56
2018-03-11T07:49:16.310Z,962.55
2018-03-11T07:50:16.322Z,962.56
2018-03-11T07:51:16.315Z,962.58
2018-03-11T07:52:16.292Z,962.57
2018-03-11T07:53:16.291Z,962.56
2018-03-11T07:54:16.305Z,962.54
2018-03-11T07:55:16.344Z,962.52
2018-03-11T07:56:16.362Z,962.50
2018-03-11T07:57:16.325Z,962.48
2018-03-11T07:58:16.344Z,962.51
2018-03-11T07:59:16.348Z,962.50
2018-03-11T08:00:16.397Z,962.59
2018-03-11T08:01:16.354Z,962.60
2018-03-11T08:02:16.391Z,962.55
2018-03-11T08:03:16.381Z,962.52
2018-03-11T08:04:16.389Z,962.50
2018-03-11T08:05:16.438Z,962.43
2018-03-11T08:06:16.398Z,962.39
2018-03-11T08:07:16.416Z,962.40
2018-03-11T08:08:16.441Z,962.38
2018-03-11T08:09:16.435Z,962.34
2018-03-11T08:10:16.520Z,962.29
2018-03-11T08:11:16.452Z,962.24
2018-03-11T08:12:16.462Z,962.23
2018-03-11T08:13:16.482Z,962.21
2018-03-11T08:14:16.474Z,962.17
2018-03-11T08:15:16.519Z,962.20
2018-03-11T08:16:16.549Z,962.20
2018-03-11T08:17:16.510Z,962.19
2018-03-11T08:18:16.525Z,962.20
2018-03-11T08:19:16.532Z,962.15
2018-03-11T08:20:16.622Z,962.13
2018-03-11T08:21:16.539Z,962.09
2018-03-11T08:22:16.548Z,962.10
2018-03-11T08:23:16.560Z,962.09
2018-03-11T08:24:16.606Z,962.16
2018-03-11T08:25:16.628Z,962.16
2018-03-11T08:26:16.645Z,962.18
2018-03-11T08:27:16.624Z,962.14
2018-03-11T08:28:16.609Z,962.15
2018-03-11T08:29:16.616Z,962.14
2018-03-11T08:30:16.673Z,962.14
2018-03-11T08:31:16.644Z,962.18
2018-03-11T08:32:16.657Z,962.14
2018-03-11T08:33:16.664Z,962.13
2018-03-11T08:34:16.678Z,962.15
2018-03-11T08:35:16.757Z,962.12
2018-03-11T08:36:16.717Z,962.09
2018-03-11T08:37:16.697Z,962.12
2018-03-11T08:38:16.719Z,962.19
2018-03-11T08:39:16.730Z,962.23
2018-03-11T08:40:16.772Z,962.29
2018-03-11T08:41:16.740Z,962.19
2018-03-11T08:42:16.747Z,962.17
2018-03-11T08:43:16.757Z,962.19
2018-03-11T08:44:16.782Z,962.19
2018-03-11T08:45:16.827Z,962.22
2018-03-11T08:46:16.792Z,962.22
2018-03-11T08:47:16.812Z,962.20
2018-03-11T08:48:16.826Z,962.18
2018-03-11T08:49:16.859Z,962.12
2018-03-11T08:50:16.873Z,962.10
2018-03-11T08:51:16.845Z,962.09
2018-03-11T08:52:16.868Z,962.11
2018-03-11T08:53:17.644Z,962.05
2018-03-11T08:54:16.890Z,962.04
2018-03-11T08:55:16.929Z,962.03
2018-03-11T08:56:16.916Z,962.05
2018-03-11T08:57:16.922Z,961.86
2018-03-11T08:58:16.928Z,961.95
2018-03-11T08:59:16.989Z,961.88
2018-03-11T09:00:16.981Z,961.91
2018-03-11T09:01:16.956Z,961.87
2018-03-11T09:02:16.966Z,961.91
2018-03-11T09:03:16.983Z,961.94
2018-03-11T09:04:17.036Z,961.96
2018-03-11T09:05:17.008Z,962.07
2018-03-11T09:06:17.048Z,962.09
2018-03-11T09:07:17.039Z,962.12
2018-03-11T09:08:17.040Z,962.09
2018-03-11T09:09:17.085Z,962.09
2018-03-11T09:10:17.056Z,962.15
2018-03-11T09:11:17.060Z,962.14
2018-03-11T09:12:17.070Z,962.15
2018-03-11T09:13:17.178Z,962.14
2018-03-11T09:14:17.153Z,962.16
2018-03-11T09:15:17.108Z,962.21
2018-03-11T09:16:17.167Z,962.20
2018-03-11T09:17:17.123Z,962.18
2018-03-11T09:18:17.141Z,962.14
2018-03-11T09:19:17.153Z,962.05
2018-03-11T09:20:17.201Z,961.98
2018-03-11T09:21:17.173Z,962.00
2018-03-11T09:22:17.186Z,961.97
2018-03-11T09:23:17.208Z,961.94
2018-03-11T09:24:17.266Z,961.99
2018-03-11T09:25:17.212Z,961.87
2018-03-11T09:26:17.221Z,961.88
2018-03-11T09:27:17.239Z,961.84
2018-03-11T09:28:17.248Z,961.85
2018-03-11T09:29:17.305Z,961.88
2018-03-11T09:30:18.164Z,961.90
2018-03-11T09:31:17.274Z,961.89
2018-03-11T09:32:17.279Z,961.93
2018-03-11T09:33:17.300Z,961.90
2018-03-11T09:34:17.348Z,961.83
2018-03-11T09:35:17.311Z,961.79
2018-03-11T09:36:17.345Z,961.68
2018-03-11T09:37:17.336Z,961.67
2018-03-11T09:38:17.336Z,961.61
2018-03-11T09:39:17.345Z,961.57
2018-03-11T09:40:17.443Z,961.69
2018-03-11T09:41:17.360Z,961.74
2018-03-11T09:42:17.382Z,961.71
2018-03-11T09:43:17.393Z,961.70
2018-03-11T09:44:17.435Z,961.74
2018-03-11T09:45:17.407Z,961.74
2018-03-11T09:46:17.409Z,961.75
2018-03-11T09:47:17.433Z,961.89
2018-03-11T09:48:17.427Z,961.90
2018-03-11T09:49:17.481Z,962.09
2018-03-11T09:50:17.657Z,962.17
2018-03-11T09:51:17.462Z,962.03
2018-03-11T09:52:17.474Z,962.06
2018-03-11T09:53:17.487Z,962.15
2018-03-11T09:54:17.545Z,962.03
2018-03-11T09:55:17.507Z,962.06
2018-03-11T09:56:17.509Z,962.01
2018-03-11T09:57:17.531Z,962.04
2018-03-11T09:58:17.566Z,962.00
2018-03-11T09:59:17.596Z,961.88
2018-03-11T10:00:17.560Z,961.93
2018-03-11T10:01:17.580Z,961.88
2018-03-11T10:02:17.592Z,961.91
2018-03-11T10:03:17.600Z,961.93
2018-03-11T10:04:17.665Z,961.93
2018-03-11T10:05:17.629Z,961.86
2018-03-11T10:06:17.640Z,961.83
2018-03-11T10:07:17.655Z,961.88
2018-03-11T10:08:17.666Z,961.83
2018-03-11T10:09:17.738Z,961.81
2018-03-11T10:10:17.700Z,961.81
2018-03-11T10:11:18.077Z,961.88
2018-03-11T10:12:17.720Z,961.79
2018-03-11T10:13:17.741Z,961.78
2018-03-11T10:14:17.819Z,961.77
2018-03-11T10:15:17.777Z,961.80
2018-03-11T10:16:17.795Z,961.78
2018-03-11T10:17:17.801Z,961.78
2018-03-11T10:18:17.803Z,961.54
2018-03-11T10:19:17.869Z,961.63
2018-03-11T10:20:17.856Z,961.59
2018-03-11T10:21:17.860Z,961.66
2018-03-11T10:22:17.860Z,961.47
2018-03-11T10:23:17.875Z,961.54
2018-03-11T10:24:17.938Z,961.54
2018-03-11T10:25:17.909Z,961.44
2018-03-11T10:26:17.925Z,961.53
2018-03-11T10:27:17.936Z,961.58
2018-03-11T10:28:17.950Z,961.59
2018-03-11T10:29:17.995Z,961.59
2018-03-11T10:30:17.974Z,961.56
2018-03-11T10:31:18.002Z,961.45
2018-03-11T10:32:18.000Z,961.54
2018-03-11T10:33:18.002Z,961.64
2018-03-11T10:34:18.069Z,961.64
2018-03-11T10:35:18.031Z,961.66
2018-03-11T10:36:18.051Z,961.63
2018-03-11T10:37:18.062Z,961.58
2018-03-11T10:38:18.076Z,961.56
2018-03-11T10:39:18.154Z,961.53
2018-03-11T10:40:18.095Z,961.51
2018-03-11T10:41:18.108Z,961.51
2018-03-11T10:42:18.129Z,961.48
2018-03-11T10:43:18.144Z,961.42
2018-03-11T10:44:18.197Z,961.41
2018-03-11T10:45:18.178Z,961.35
2018-03-11T10:46:18.242Z,961.39
2018-03-11T10:47:18.200Z,961.26
2018-03-11T10:48:18.210Z,961.20
2018-03-11T10:49:18.276Z,961.16
2018-03-11T10:50:18.314Z,961.18
2018-03-11T10:51:18.252Z,961.17
2018-03-11T10:52:18.275Z,961.21
2018-03-11T10:53:18.292Z,961.22
2018-03-11T10:54:18.343Z,961.19
2018-03-11T10:55:18.349Z,961.18
2018-03-11T10:56:18.657Z,961.15
2018-03-11T10:57:18.373Z,961.03
2018-03-11T10:58:18.358Z,960.99
2018-03-11T10:59:18.379Z,961.05
2018-03-11T11:00:18.429Z,961.01
2018-03-11T11:01:18.403Z,960.93
2018-03-11T11:02:18.482Z,960.90
2018-03-11T11:03:18.449Z,960.99
2018-03-11T11:04:18.493Z,960.92
2018-03-11T11:05:18.472Z,960.87
2018-03-11T11:06:18.498Z,960.80
2018-03-11T11:07:18.521Z,960.79
2018-03-11T11:08:18.544Z,960.76
2018-03-11T11:09:18.601Z,960.69
2018-03-11T11:10:18.558Z,960.67
2018-03-11T11:11:18.577Z,960.63
2018-03-11T11:12:18.617Z,960.54
2018-03-11T11:13:18.623Z,960.54
2018-03-11T11:14:18.668Z,960.60
2018-03-11T11:15:18.702Z,960.62
2018-03-11T11:16:18.693Z,960.56
2018-03-11T11:17:19.187Z,960.62
2018-03-11T11:18:18.712Z,960.65
2018-03-11T11:19:18.800Z,960.64
2018-03-11T11:20:18.809Z,960.68
2018-03-11T11:21:18.770Z,960.53
2018-03-11T11:22:18.780Z,960.65
2018-03-11T11:23:18.802Z,960.69
2018-03-11T11:24:18.890Z,960.71
2018-03-11T11:25:18.885Z,960.77
2018-03-11T11:26:18.896Z,960.71
2018-03-11T11:27:18.894Z,960.75
2018-03-11T11:28:18.909Z,960.76
2018-03-11T11:29:18.973Z,960.63
2018-03-11T11:30:18.954Z,960.63
2018-03-11T11:31:19.030Z,960.63
2018-03-11T11:32:18.993Z,960.75
2018-03-11T11:33:19.003Z,960.57
2018-03-11T11:34:19.060Z,960.55
2018-03-11T11:35:19.092Z,960.53
2018-03-11T11:36:19.075Z,960.40
2018-03-11T11:37:19.219Z,960.32
2018-03-11T11:38:19.102Z,960.66
2018-03-11T11:39:19.189Z,960.63
2018-03-11T11:40:19.177Z,960.57
2018-03-11T11:41:19.166Z,960.46
2018-03-11T11:42:19.183Z,960.54
2018-03-11T11:43:19.200Z,960.57
2018-03-11T11:44:19.254Z,960.67
2018-03-11T11:45:19.272Z,960.63
2018-03-11T11:46:19.252Z,960.55
2018-03-11T11:47:20.211Z,960.50
2018-03-11T11:48:19.285Z,960.47
2018-03-11T11:49:19.333Z,960.51
2018-03-11T11:50:19.361Z,960.39
2018-03-11T11:51:19.337Z,960.41
2018-03-11T11:52:19.354Z,960.41
2018-03-11T11:53:19.371Z,960.37
2018-03-11T11:54:19.440Z,960.32
2018-03-11T11:55:19.404Z,960.43
2018-03-11T11:56:19.413Z,960.41
2018-03-11T11:57:19.432Z,960.52
2018-03-11T11:58:19.456Z,960.45
2018-03-11T11:59:19.502Z,960.43
2018-03-11T12:00:19.490Z,960.43
2018-03-11T12:01:19.500Z,960.23
2018-03-11T12:02:19.515Z,960.18
2018-03-11T12:03:19.534Z,960.17
2018-03-11T12:04:19.596Z,960.19
2018-03-11T12:05:19.581Z,960.21
2018-03-11T12:06:19.588Z,960.29
2018-03-11T12:07:19.742Z,960.21
2018-03-11T12:08:19.609Z,960.26
2018-03-11T12:09:19.686Z,960.44
2018-03-11T12:10:19.649Z,960.47
2018-03-11T12:11:19.664Z,960.19
2018-03-11T12:12:19.679Z,960.13
2018-03-11T12:13:19.684Z,960.17
2018-03-11T12:14:19.747Z,960.11
2018-03-11T12:15:20.633Z,960.18
2018-03-11T12:16:19.747Z,960.27
2018-03-11T12:17:19.771Z,960.22
2018-03-11T12:18:19.764Z,960.15
2018-03-11T12:19:19.816Z,960.19
2018-03-11T12:20:19.805Z,960.28
2018-03-11T12:21:19.804Z,960.40
2018-03-11T12:22:19.822Z,960.32
2018-03-11T12:23:19.825Z,960.26
2018-03-11T12:24:19.896Z,960.21
2018-03-11T12:25:19.858Z,960.15
2018-03-11T12:26:19.866Z,960.01
2018-03-11T12:27:19.891Z,959.89
2018-03-11T12:28:19.905Z,959.97